Weather observations for the past three days for
Caledonia County Airport
Imperial (Metric)
Date Time (edt) Wind (mph) Vis. (mi.) Weather Sky Cond. Temperature (ºF) Relative Humidity Wind Chill (°F) Heat Index (°F) Pressure Precipitation (in)
Air Dwpt 6 hour altimeter (in) sea level (mb) 1 hr 3 hr 6 hr
Max. Min.
10 11:55 SE 10 10.00 Overcast BKN015 BKN022 OVC027 54.1 48.7 82% 29.86 0.0
10 11:35 SE 7 7.00 Overcast BKN015 BKN024 OVC041 53.4 48.2 83% 29.86 0.0
10 11:15 Calm 10.00 Overcast BKN015 BKN028 OVC045 54.7 48.4 79% 29.86 0.0
10 10:55 SE 5 10.00 Overcast BKN015 OVC029 52 47.3 84% 29.86 0.0
10 10:35 Calm 10.00 Overcast BKN017 BKN025 OVC031 52.9 46.9 80% 29.86 0.0
10 10:15 Calm 10.00 Overcast BKN014 OVC023 52 46.8 82% 29.86 0.0
10 09:55 Calm 10.00 Overcast OVC014 51.1 46.4 84% 29.86 0.0
10 09:35 Calm 10.00 Overcast BKN012 OVC018 50.9 46.6 85% 29.85 0.0
10 09:15 SE 5 10.00 Overcast OVC010 50 46.2 87% 49 29.86 0.0
10 08:55 Calm 10.00 Overcast OVC010 49.6 45.9 87% 29.86 0.0
10 08:35 Calm 10.00 Overcast OVC008 49.6 46.2 88% 29.85 0.0
10 08:15 Calm 10.00 Overcast OVC008 48.9 46 90% 29.85 0.0
10 07:55 SE 3 10.00 Overcast OVC008 48.4 45.9 48.4 45.5 91% 29.86 0.0
10 07:35 Calm 10.00 Overcast OVC006 47.7 45.5 92% 29.84 0.0
10 07:15 Calm 10.00 Overcast OVC006 46.9 44.8 92% 29.84 0.0
10 06:55 Calm 10.00 Overcast OVC006 46.8 44.8 93% 29.83 0.0
10 06:35 Calm 10.00 Overcast OVC008 46.6 44.6 93% 29.84 0.0
10 06:15 Calm 10.00 Overcast OVC008 45.9 44.6 95% 29.83 0.0
10 05:55 Calm 10.00 Overcast OVC010 45.7 44.1 94% 29.81 0.0
10 05:35 Calm 10.00 Overcast OVC010 45.5 43.7 93% 29.81 0.0
10 05:15 Calm 7.00 Overcast OVC008 45.7 43.7 93% 29.81 0.0
10 04:55 Calm 7.00 Overcast BKN008 BKN012 OVC029 46.4 43.3 89% 29.82 0.0
10 04:35 SE 3 10.00 Overcast BKN012 OVC029 46.6 43.3 89% 29.82 0.0
10 04:15 Calm 10.00 Overcast OVC009 46.8 43.3 88% 29.82 0.0
10 03:55 SE 5 10.00 Overcast OVC009 46.6 43.2 88% 45 29.82 0.0
10 03:35 SE 10 10.00 Overcast OVC009 46.6 43.2 88% 42 29.83 0.0
10 03:15 Calm 10.00 Overcast OVC009 46 42.8 89% 29.83 0.0
10 02:55 Calm 10.00 Overcast OVC009 45.9 42.8 89% 29.82 0.0
10 02:35 Calm 10.00 Overcast OVC009 45.9 42.4 88% 29.82 0.0
10 02:15 SE 7 10.00 Overcast OVC009 45.9 42.4 88% 43 29.83 0.0
10 01:55 Calm 10.00 Overcast OVC009 45.9 42.4 46.8 45.5 88% 29.83 0.0
10 01:35 SE 5 10.00 Overcast OVC009 45.7 42.1 87% 44 29.83 0.0
10 01:15 Calm 10.00 Overcast OVC013 45.5 41.5 86% 29.84 0.0
10 00:55 Calm 10.00 Overcast OVC013 45.5 41.4 86% 29.83 0.0
10 00:35 Calm 10.00 Overcast OVC015 45.5 41.4 86% 29.83 0.0
10 00:15 Calm 10.00 Overcast OVC015 45.5 41.4 86% 29.84 0.0
09 23:55 Calm 10.00 Overcast OVC015 45.5 41.2 85% 29.83 0.0
09 23:35 Calm 10.00 Overcast OVC015 45.7 41.2 84% 29.84 0.0
09 23:15 Calm 10.00 Overcast OVC017 45.9 41 83% 29.84 0.0
09 22:55 Calm 10.00 Overcast OVC017 45.9 41 83% 29.84 0.0
09 22:35 Calm 10.00 Overcast OVC017 45.9 41 83% 29.84 0.0
09 22:15 Calm 10.00 Overcast OVC017 45.9 41 83% 29.84 0.0
09 21:55 Calm 10.00 Overcast OVC019 45.9 40.6 82% 29.84 0.0
09 21:35 Calm 10.00 Overcast OVC019 45.9 40.5 82% 29.86 0.0
09 21:15 Calm 10.00 Overcast OVC021 46 40.1 80% 29.86 0.0
09 20:55 Calm 10.00 Overcast OVC021 46 39.6 78% 29.85 0.0
09 20:35 Calm 10.00 Overcast OVC021 46.4 39.6 77% 29.85 0.0
09 20:15 Calm 10.00 Overcast OVC021 46.8 39.2 75% 29.84 0.0
09 19:55 Calm 10.00 Overcast OVC021 46.8 38.8 50.9 46.4 74% 29.84 0.0
09 19:35 Calm 10.00 Overcast OVC023 47.3 38.7 72% 29.84 0.0
09 19:15 Calm 10.00 Overcast OVC023 47.5 38.5 71% 29.84 0.0
09 18:55 Calm 10.00 Overcast OVC023 47.7 37.9 69% 29.84 0.0
09 18:35 Calm 10.00 Overcast OVC025 47.7 37.8 69% 29.85 0.0
09 18:15 Calm 10.00 Overcast OVC025 47.7 38.1 70% 29.85 0.0
09 17:55 Calm 10.00 Overcast OVC027 47.7 38.1 70% 29.85 0.0
09 17:35 SE 6 10.00 Overcast OVC027 47.7 37.9 69% 45 29.86 0.0
09 17:15 SE 8 10.00 Overcast OVC027 47.5 38.3 71% 44 29.86 0.0
09 16:55 SE 7 10.00 Overcast OVC025 46.8 38.3 73% 44 29.86 0.0
09 16:35 Calm 10.00 Overcast OVC025 46.8 40.1 78% 29.86 0.0
09 16:15 Calm 7.00 Overcast OVC025 46.4 39.9 78% 29.87 0.0
09 15:55 SE 8 10.00 Overcast OVC025 46.8 38.5 73% 43 29.87 0.0
09 15:35 SE 9 10.00 Overcast OVC027 47.8 37.8 68% 44 29.87 0.0
09 15:15 SE 8 10.00 Overcast SCT029 BKN050 OVC080 48 37.6 67% 45 29.88 0.0
09 14:55 SE 9 10.00 Overcast OVC048 48.2 37.8 67% 45 29.89 0.0
09 14:35 SE 6 10.00 Overcast SCT035 BKN046 OVC060 48.4 37.2 65% 46 29.89 0.0
09 14:15 SE 13 G 17 10.00 Overcast SCT035 BKN041 OVC070 49.5 35.4 59% 45 29.89 0.0
09 13:55 S 13 G 18 10.00 Overcast SCT048 OVC070 51.6 32.5 55.4 37 48% 29.89 0.0
09 13:35 SE 13 G 21 10.00 Overcast SCT050 BKN070 OVC090 52.9 29.3 40% 29.89 0.0
09 13:15 S 10 10.00 Mostly Cloudy SCT080 BKN090 54.5 28.2 36% 29.88 0.0
09 12:55 SE 8 G 16 10.00 Mostly Cloudy BKN080 BKN090 54.5 27.3 35% 29.89 0.0
09 12:35 S 10 G 17 10.00 Mostly Cloudy BKN090 55 26.2 33% 29.89 0.0
09 12:15 SE 13 G 17 10.00 Partly Cloudy SCT090 54.7 27 34% 29.9 0.0
09 11:55 SE 6 G 18 10.00 Partly Cloudy SCT090 54.7 26.6 34% 29.9 0.0
09 11:35 SE 6 10.00 Fair CLR 54.9 24.8 31% 29.91 0.0
09 11:15 SE 10 G 16 10.00 Fair CLR 54.7 25.7 33% 29.91 0.0
09 10:55 Calm 10.00 Fair CLR 52.7 24.1 33% 29.91 0.0
09 10:35 SE 12 G 18 10.00 Fair CLR 52.5 26.4 36% 29.92 0.0
09 10:15 SE 10 10.00 Fair CLR 51.1 28 41% 29.93 0.0
09 09:55 Calm 10.00 Fair CLR 48.9 29.8 48% 29.92 0.0
09 09:35 Calm 10.00 Fair CLR 47.5 31.1 53% 29.93 0.0
09 09:15 SE 5 10.00 Fair CLR 46.4 31.3 56% 45 29.93 0.0
09 08:55 Calm 10.00 Fair CLR 43.9 31.6 62% 29.94 0.0
09 08:35 Calm 10.00 Fair CLR 41.4 30.4 65% 29.94 0.0
09 08:15 Calm 10.00 Fair CLR 40.1 31.1 70% 29.94 0.0
09 07:55 Calm 10.00 Fair CLR 36.9 30.9 36.9 27.1 79% 29.94 0.0
09 07:35 Calm 10.00 Fair CLR 35.1 30.2 82% 29.94 0.0
09 07:15 Calm 10.00 Fair CLR 32.5 29.3 88% 29.94 0.0
09 06:55 Calm 10.00 Fair CLR 31.1 28.2 89% 29.93 0.0
09 06:35 Calm 10.00 Fair CLR 29.3 27.7 94% 29.93 0.0
09 06:15 Calm 10.00 Fair CLR 27.5 26.2 95% 29.93 0.0
09 05:55 Calm 10.00 Fair CLR 27.5 25.9 94% 29.92 0.0
09 05:35 Calm 10.00 Fair CLR 27.3 25.5 93% 29.91 0.0
09 05:15 Calm 10.00 Fair CLR 28.6 26.1 90% 29.91 0.0
09 04:55 Calm 10.00 Fair CLR 29.1 26.6 90% 29.91 0.0
09 04:35 Calm 10.00 Fair CLR 29.3 27 91% 29.91 0.0
09 04:15 Calm 10.00 Fair CLR 29.8 27.3 90% 29.91 0.0
09 03:55 Calm 10.00 Fair CLR 30.2 27.1 88% 29.91 0.0
09 03:35 Calm 10.00 Fair CLR 29.5 27.1 91% 29.91 0.0
09 03:15 Calm 10.00 Fair CLR 29.5 26.2 88% 29.91 0.0
09 02:55 Calm 10.00 Fair CLR 29.8 25.9 85% 29.91 0.0
09 02:35 Calm 10.00 Fair CLR 30.6 27.3 88% 29.91 0.0
09 02:15 Calm 10.00 Fair CLR 31.5 27.3 85% 29.91 0.0
09 01:55 Calm 10.00 Partly Cloudy SCT095 31.6 27.7 44.1 30.9 85% 29.91 0.0
09 01:35 Calm 10.00 Mostly Cloudy BKN095 32.4 26.8 80% 29.91 0.0
09 01:15 Calm 10.00 Partly Cloudy SCT095 33.1 28 82% 29.9 0.0
09 00:55 Calm 10.00 Fair CLR 33.8 28 79% 29.9 0.0
09 00:35 Calm 10.00 Mostly Cloudy BKN090 34.2 27.5 77% 29.9 0.0
09 00:15 Calm 10.00 Overcast OVC090 34.5 27.5 76% 29.9 0.0
08 23:55 Calm 10.00 Mostly Cloudy BKN090 35.1 27.5 74% 29.89 0.0
08 23:35 Calm 10.00 Partly Cloudy SCT090 36.1 27 69% 29.89 0.0
08 23:15 Calm 10.00 Fair CLR 37 27.1 67% 29.88 0.0
08 22:55 Calm 10.00 Fair CLR 37.9 26.4 63% 29.87 0.0
08 22:35 Calm 10.00 Partly Cloudy SCT090 38.8 26.4 61% 29.88 0.0
08 22:15 Calm 10.00 Mostly Cloudy BKN090 40.3 25.7 56% 29.87 0.0
08 21:55 Calm 10.00 Overcast OVC090 41.4 26.4 55% 29.86 0.0
08 21:35 Calm 10.00 Overcast OVC090 41 24.4 52% 29.86 0.0
08 21:15 Calm 10.00 Mostly Cloudy BKN090 43 23 45% 29.86 0.0
08 20:55 Calm 10.00 Overcast OVC090 43.5 23.4 45% 29.85 0.0
08 20:35 Calm 10.00 Overcast OVC090 43 24.4 48% 29.84 0.0
08 20:15 Calm 10.00 Overcast OVC090 43.7 24.3 46% 29.84 0.0
08 19:55 Calm 10.00 Overcast OVC090 44.1 24.8 50.2 44.1 47% 29.84 0.0
08 19:35 Calm 10.00 Overcast OVC090 45 24.1 44% 29.83 0.0
08 19:15 Calm 10.00 Overcast OVC090 45.7 23.5 42% 29.83 0.0
08 18:55 Calm 10.00 Overcast OVC090 45.9 25.3 45% 29.83 0.0
08 18:35 Calm 10.00 Overcast OVC080 45.9 25.9 46% 29.82 0.0
08 18:15 W 6 10.00 Overcast OVC080 46.8 26.4 45% 44 29.82 0.0
08 17:55 W 3 10.00 Overcast SCT060 OVC080 48.6 26.1 42% 29.82 0.0
08 17:35 Calm 10.00 Overcast SCT070 SCT080 OVC085 48.4 26.1 42% 29.81 0.0
08 17:15 SW 7 G 16 10.00 Overcast SCT055 SCT080 OVC090 48.7 25.3 40% 46 29.81 0.0
08 16:55 W 5 G 20 10.00 Overcast BKN055 BKN070 OVC090 49.5 25.2 39% 48 29.81 0.0
08 16:35 SW 5 G 17 10.00 Overcast SCT055 BKN080 OVC090 48.4 25 40% 47 29.8 0.0
08 16:15 W 7 G 17 10.00 Overcast OVC080 47.3 25.2 42% 44 29.8 0.0
08 15:55 W 9 10.00 Overcast OVC080 46.8 24.6 42% 43 29.8 0.0
08 15:15 SW 13 G 22 10.00 Overcast BKN055 OVC080 45.9 24.1 42% 41 29.81 0.0
08 14:55 SW 9 G 18 10.00 Overcast OVC070 45.7 24.1 43% 42 29.8 0.0
08 14:35 SW 9 G 17 10.00 Overcast SCT050 BKN070 OVC075 45.9 25.5 45% 42 29.8 0.0
08 14:15 SW 8 10.00 Overcast SCT050 BKN070 OVC080 46.8 26.4 45% 43 29.8 0.0
08 13:55 Calm 10.00 Overcast SCT050 OVC060 45.5 28.6 48.7 36.1 52% 29.8 0.0
08 13:35 W 12 10.00 Overcast BKN050 BKN070 OVC080 44.6 28.4 53% 39 29.8 0.0
08 13:15 Calm 10.00 Overcast SCT047 OVC070 45.9 26.4 47% 29.79 0.0
08 12:55 W 5 10.00 Overcast BKN045 BKN060 OVC075 46.4 29.3 51% 45 29.79 0.0
08 12:35 SW 10 10.00 Overcast SCT041 BKN047 OVC075 48.7 30.4 49% 45 29.79 0.0
08 12:15 Calm 10.00 Overcast SCT040 SCT047 OVC075 46.8 31.6 56% 29.8 0.0
08 11:55 W 3 10.00 Overcast SCT037 OVC075 44.8 31.5 60% 29.8 0.0
08 11:35 SW 8 10.00 Overcast OVC075 44.6 30.7 58% 41 29.8 0.0
08 11:15 SW 6 10.00 Overcast SCT035 SCT041 OVC075 45 31.3 59% 42 29.79 0.0
08 10:35 SW 10 G 16 10.00 Overcast OVC075 43.9 30.7 60% 39 29.79 0.0
08 10:15 Calm 10.00 Overcast SCT065 OVC075 43.2 31.3 63% 29.8 0.0
08 09:55 Calm 10.00 Overcast SCT055 OVC075 43 32.2 66% 29.8 0.0
08 09:35 Calm 10.00 Overcast SCT055 BKN065 OVC075 41.7 32.2 69% 29.8 0.0
08 09:15 Calm 10.00 Overcast SCT065 OVC075 40.8 32.4 72% 29.8 0.0
08 08:55 Calm 10.00 Overcast OVC075 40.5 32 72% 29.79 0.0
08 08:35 Calm 10.00 Overcast SCT060 SCT065 OVC075 38.5 32 78% 29.8 0.0
08 08:15 Calm 10.00 Overcast BKN060 BKN070 OVC075 36.1 32 85% 29.79 0.0
08 07:55 Calm 10.00 Overcast SCT070 OVC080 36.5 32.4 37 30.2 85% 29.79 0.0
08 07:35 Calm 10.00 Overcast OVC080 36.1 32.2 86% 29.79 0.0
08 07:15 Calm 10.00 Overcast OVC080 34.5 32 91% 29.79 0.0
08 06:55 Calm 10.00 Overcast OVC080 33.6 31.1 90% 29.78 0.0
08 06:35 Calm 10.00 Mostly Cloudy BKN090 33.1 31.5 94% 29.78 0.0
08 06:15 Calm 10.00 Fair CLR 31.5 29.5 92% 29.77 0.0
08 05:55 Calm 10.00 Fair CLR 31.1 28.8 91% 29.76 0.0
08 05:35 Calm 10.00 Partly Cloudy SCT090 30.2 27.7 90% 29.76 0.0
08 05:15 Calm 10.00 Partly Cloudy SCT090 31.6 28.9 90% 29.76 0.0
08 04:55 Calm 10.00 Partly Cloudy SCT080 32.4 29.1 88% 29.75 0.0
08 04:35 Calm 10.00 Mostly Cloudy BKN080 32.2 29.1 88% 29.75 0.0
08 04:15 Calm 10.00 Partly Cloudy SCT090 32.9 29.3 87% 29.75 0.0
08 03:55 Calm 10.00 Partly Cloudy SCT090 33.8 29.1 83% 29.75 0.0
08 03:35 Calm 10.00 Mostly Cloudy SCT041 SCT049 BKN090 32.9 29.7 88% 29.75 0.0
08 03:15 Calm 10.00 Partly Cloudy SCT044 SCT090 33.1 30.2 89% 29.75 0.0
08 02:55 Calm 10.00 Overcast BKN044 BKN050 OVC065 36.9 30.4 77% 29.75 0.0
08 02:35 Calm 10.00 Overcast SCT029 SCT040 OVC050 35.1 30.6 84% 29.76 0.0
08 02:15 Calm 10.00 Overcast SCT050 SCT065 OVC085 35.1 29.7 81% 29.76 0.0
08 01:55 Calm 10.00 Overcast SCT060 SCT070 OVC085 34.9 30.4 45.5 34.7 84% 29.76 0.0
08 01:35 Calm 10.00 Overcast OVC085 35.4 30.4 82% 29.77 0.0
08 01:15 Calm 10.00 Overcast OVC085 36.1 29.5 77% 29.77 0.0
08 00:55 Calm 10.00 Overcast OVC085 35.2 29.1 78% 29.77 0.0
08 00:35 Calm 10.00 Overcast OVC085 35.1 29.1 79% 29.77 0.0
08 00:15 Calm 10.00 Overcast OVC075 37.4 27.3 67% 29.77 0.0
07 23:55 Calm 10.00 Overcast OVC075 36.9 26.8 67% 29.78 0.0
07 23:35 Calm 10.00 Partly Cloudy SCT075 36.5 26.2 66% 29.77 0.0
07 23:15 Calm 10.00 Fair CLR 36.1 25.5 65% 29.77 0.0
07 22:55 Calm 10.00 Fair CLR 39 24.8 57% 29.78 0.0
07 22:35 Calm 10.00 Fair CLR 40.1 24.6 54% 29.78 0.0
07 22:15 Calm 10.00 Fair CLR 41.4 23.7 50% 29.77 0.0
07 21:55 Calm 10.00 Fair CLR 41.4 23.9 50% 29.77 0.0
07 21:35 Calm 10.00 Partly Cloudy SCT080 41.4 25.2 53% 29.76 0.0
07 21:15 Calm 10.00 Fair CLR 41.7 25.9 53% 29.76 0.0
07 20:55 Calm 10.00 Partly Cloudy SCT065 SCT080 43.2 25 49% 29.76 0.0
07 20:35 Calm 10.00 Overcast SCT065 OVC080 44.1 24.4 46% 29.76 0.0
07 20:15 Calm 10.00 Overcast SCT065 OVC080 45.1 23.7 43% 29.76 0.0
07 19:55 Calm 10.00 Overcast OVC070 45.5 24.6 52.7 45 44% 29.76 0.0
07 19:35 Calm 10.00 Overcast OVC070 45 25.2 46% 29.75 0.0
07 19:15 Calm 10.00 Partly Cloudy SCT070 SCT080 45.9 23.4 41% 29.75 0.0
07 18:55 W 7 10.00 Fair CLR 47.1 22.8 38% 44 29.75 0.0
07 18:35 W 9 G 21 10.00 Partly Cloudy SCT070 48.9 23.5 37% 45 29.74 0.0
07 18:15 W 13 G 21 10.00 Mostly Cloudy BKN070 49.1 24.1 38% 45 29.74 0.0
07 17:55 SW 13 G 26 10.00 Overcast SCT070 OVC080 49.1 24.8 39% 45 29.74 0.0
07 17:35 W 10 G 22 10.00 Overcast OVC070 50 25.3 38% 46 29.73 0.0
07 17:15 SW 16 G 26 10.00 Overcast OVC065 50.2 25.9 39% 29.73 0.0
07 16:55 W 10 G 25 10.00 Mostly Cloudy SCT065 BKN075 50.4 24.4 36% 29.72 0.0
07 16:35 SW 15 G 26 10.00 Mostly Cloudy SCT075 BKN080 51.4 25 36% 29.72 0.0
07 16:15 SW 12 G 24 10.00 Mostly Cloudy BKN070 51.4 25 36% 29.72 0.0
07 15:55 SW 14 G 21 10.00 Mostly Cloudy BKN070 51.3 25.2 36% 29.72 0.0
07 15:35 SW 14 G 23 10.00 Mostly Cloudy BKN070 50.7 24.6 36% 29.72 0.0
07 15:15 SW 6 G 22 10.00 Overcast OVC070 51.4 25.2 36% 29.72 0.0
07 14:55 SW 13 G 23 10.00 Mostly Cloudy BKN060 51.6 27 39% 29.72 0.0
07 14:35 W 14 G 22 10.00 Mostly Cloudy BKN060 52 27.7 39% 29.72 0.0
07 14:15 SW 15 G 23 10.00 Mostly Cloudy BKN060 51.8 28.8 41% 29.72 0.0
07 13:55 SW 10 G 24 10.00 Mostly Cloudy BKN060 49.3 27.1 50.7 40.5 42% 45 29.72 0.0
07 13:35 SW 12 G 18 10.00 Overcast OVC050 49.5 28.8 45% 45 29.72 0.0
07 13:15 SW 9 10.00 Overcast BKN050 OVC065 49.1 30.9 50% 46 29.73 0.0
07 12:55 SW 9 10.00 Mostly Cloudy BKN048 BKN055 48.4 30.9 51% 45 29.73 0.0
07 12:35 Calm 10.00 Mostly Cloudy SCT048 BKN050 48.7 31.8 52% 29.74 0.0
07 12:15 SW 7 10.00 Mostly Cloudy SCT042 BKN050 49.1 31.3 50% 47 29.75 0.0
Date Time (edt) Wind (mph) Vis. (mi.) Weather Sky Cond. Air Dwpt Max. Min. Relative Humidity Wind Chill (°F) Heat Index (°F) altimeter (in) sea level (mb) 1 hr 3 hr 6 hr
6 hour
Temperature (ºF) Pressure Precipitation (in)